Time;durP1;ratioP1;P1;durP2;ratioP2;P2;SDS_P1;SDS_P2;PMS_P1;PMS_P2;Temp;Humidity;BMP_temperature;BMP_pressure;BME280_temperature;BME280_humidity;BME280_pressure;Samples;Min_cycle;Max_cycle;Signal;HPM_P1;HPM_P2
2022/11/22 00:01:12;;;;;;;79.40;51.50;;;;;;;0.88;65.20;99416.13;108124;1280;22094;-77
2022/11/22 00:03:46;;;;;;;76.30;52.20;;;;;;;0.86;65.34;99426.27;108132;1280;21935;-78
2022/11/22 00:06:18;;;;;;;77.00;51.80;;;;;;;0.88;65.29;99428.98;108236;1280;21956;-76
2022/11/22 00:08:53;;;;;;;72.30;51.60;;;;;;;0.90;65.36;99425.86;108091;1281;22877;-78
2022/11/22 00:11:26;;;;;;;66.10;45.50;;;;;;;0.87;64.95;99418.02;108076;1280;21961;-79
2022/11/22 00:14:02;;;;;;;64.80;46.20;;;;;;;0.86;65.07;99420.95;108411;1273;23663;-79
2022/11/22 00:16:37;;;;;;;65.30;47.80;;;;;;;0.87;65.02;99424.20;108696;1273;22039;-76
2022/11/22 00:19:11;;;;;;;60.40;41.80;;;;;;;0.86;64.91;99425.76;108479;1278;21941;-77
2022/11/22 00:21:40;;;;;;;50.70;39.40;;;;;;;0.84;64.64;99431.08;108524;1278;23193;-76
2022/11/22 00:24:17;;;;;;;53.00;39.10;;;;;;;0.79;64.73;99428.74;108531;1278;22448;-77
2022/11/22 00:26:46;;;;;;;55.30;40.10;;;;;;;0.79;64.85;99438.50;108269;1280;21977;-77
2022/11/22 00:29:17;;;;;;;56.90;40.80;;;;;;;0.80;64.79;99439.36;108029;1280;22563;-77
2022/11/22 00:31:46;;;;;;;53.80;39.90;;;;;;;0.78;64.67;99434.23;108045;1280;22077;-78
2022/11/22 00:34:22;;;;;;;55.20;40.50;;;;;;;0.75;64.60;99435.13;108030;1280;23587;-77
2022/11/22 00:36:56;;;;;;;55.90;42.80;;;;;;;0.72;64.49;99431.06;108328;1272;22036;-78
2022/11/22 00:39:39;;;;;;;58.20;42.10;;;;;;;0.65;64.41;99425.31;108541;1278;23583;-78
2022/11/22 00:42:44;;;;;;;57.90;42.30;;;;;;;0.59;64.57;99422.31;108552;1275;21948;-76
2022/11/22 00:45:26;;;;;;;53.00;38.00;;;;;;;0.59;64.73;99421.80;108310;1278;21930;-75
2022/11/22 00:48:25;;;;;;;51.50;37.50;;;;;;;0.56;64.55;99422.86;108417;1278;22079;-76
2022/11/22 00:51:06;;;;;;;47.80;35.70;;;;;;;0.48;64.55;99426.21;108534;1278;23675;-76
2022/11/22 00:53:48;;;;;;;49.70;34.90;;;;;;;0.44;64.65;99432.92;108482;1277;21939;-76
2022/11/22 00:56:24;;;;;;;46.10;35.50;;;;;;;0.40;64.75;99436.57;108372;1280;23676;-76
2022/11/22 00:58:55;;;;;;;52.10;39.20;;;;;;;0.41;64.87;99435.70;108180;1275;21966;-77
2022/11/22 01:01:24;;;;;;;46.80;35.70;;;;;;;0.45;65.05;99434.63;108235;1278;21978;-77
2022/11/22 01:03:57;;;;;;;42.40;32.70;;;;;;;0.50;65.06;99427.72;107995;1284;21933;-76
2022/11/22 01:06:30;;;;;;;42.30;32.60;;;;;;;0.57;65.16;99419.09;108178;1281;21986;-74
2022/11/22 01:09:09;;;;;;;41.30;31.10;;;;;;;0.62;65.06;99411.33;108155;1283;23028;-75
2022/11/22 01:11:43;;;;;;;42.50;32.50;;;;;;;0.61;64.91;99412.52;108281;1281;23600;-77
2022/11/22 01:14:43;;;;;;;47.80;34.60;;;;;;;0.56;64.72;99412.77;108213;1278;22016;-76
2022/11/22 01:17:33;;;;;;;40.70;30.10;;;;;;;0.52;65.00;99410.58;108136;1281;23670;-77
2022/11/22 01:20:35;;;;;;;38.80;30.00;;;;;;;0.55;65.14;99409.86;108101;1280;21990;-76
2022/11/22 01:23:09;;;;;;;39.10;30.00;;;;;;;0.56;64.94;99407.62;107958;1281;21941;-76
2022/11/22 01:25:44;;;;;;;42.30;32.30;;;;;;;0.50;64.64;99408.02;108149;1281;21936;-75
2022/11/22 01:28:14;;;;;;;40.30;30.20;;;;;;;0.40;64.60;99402.51;108238;1281;23089;-77
2022/11/22 01:30:54;;;;;;;37.80;29.50;;;;;;;0.38;64.62;99407.65;108126;1284;23032;-77
2022/11/22 01:33:48;;;;;;;38.00;29.50;;;;;;;0.32;64.73;99404.13;108104;1281;22263;-77
2022/11/22 01:36:29;;;;;;;36.40;29.70;;;;;;;0.38;65.13;99403.55;108440;1277;21950;-76
2022/11/22 01:39:01;;;;;;;37.40;28.50;;;;;;;0.45;65.20;99395.78;108407;1269;23079;-76
2022/11/22 01:41:55;;;;;;;36.70;28.10;;;;;;;0.46;64.98;99397.13;108424;1278;21956;-77
2022/11/22 01:44:32;;;;;;;37.80;29.10;;;;;;;0.40;64.82;99398.73;108435;1280;23664;-77
2022/11/22 01:47:22;;;;;;;41.00;30.80;;;;;;;0.29;64.73;99400.07;108517;1272;21929;-77
2022/11/22 01:50:15;;;;;;;32.20;24.40;;;;;;;0.23;65.00;99396.20;108894;1272;23574;-76
2022/11/22 01:53:02;;;;;;;33.10;24.80;;;;;;;0.19;65.17;99392.98;108934;1272;22067;-76
2022/11/22 01:55:33;;;;;;;33.90;26.70;;;;;;;0.24;65.37;99392.23;108842;1272;21915;-76
2022/11/22 01:58:03;;;;;;;35.80;28.40;;;;;;;0.30;65.55;99393.71;108865;1274;22295;-76
2022/11/22 02:00:47;;;;;;;32.60;25.70;;;;;;;0.34;65.47;99393.52;108905;1272;23669;-76
2022/11/22 02:03:33;;;;;;;37.30;28.40;;;;;;;0.34;65.38;99397.95;109009;1272;21918;-74
2022/11/22 02:06:19;;;;;;;37.80;28.80;;;;;;;0.31;65.35;99393.88;108990;1272;21933;-75
2022/11/22 02:09:06;;;;;;;40.80;31.40;;;;;;;0.33;65.69;99395.23;108856;1271;23048;-75
2022/11/22 02:11:46;;;;;;;34.40;27.10;;;;;;;0.36;65.75;99385.78;108922;1272;23664;-75
2022/11/22 02:14:27;;;;;;;37.00;29.00;;;;;;;0.35;65.63;99380.64;108855;1272;21983;-75
2022/11/22 02:17:18;;;;;;;35.30;30.50;;;;;;;0.26;65.41;99376.82;108854;1273;21930;-75
2022/11/22 02:19:57;;;;;;;38.60;30.90;;;;;;;0.19;65.53;99378.27;108670;1273;21933;-75
2022/11/22 02:22:57;;;;;;;35.80;29.70;;;;;;;0.19;65.72;99376.05;108708;1274;21986;-76
2022/11/22 02:25:53;;;;;;;35.80;29.70;;;;;;;0.16;65.69;99379.00;108724;1272;23919;-76
2022/11/22 02:28:27;;;;;;;41.40;29.20;;;;;;;0.11;65.81;99379.73;108884;1272;23061;-75
2022/11/22 02:31:02;;;;;;;34.00;28.70;;;;;;;0.08;65.94;99376.51;108741;1273;23004;-75
2022/11/22 02:33:46;;;;;;;35.30;26.80;;;;;;;0.12;66.33;99375.44;108772;1274;21930;-76
2022/11/22 02:36:19;;;;;;;33.70;28.20;;;;;;;0.19;66.53;99371.94;108901;1275;21923;-78
2022/11/22 02:38:52;;;;;;;30.60;25.00;;;;;;;0.23;66.45;99373.27;108778;1274;21960;-77
2022/11/22 02:41:24;;;;;;;32.20;27.30;;;;;;;0.24;66.37;99378.39;108666;1275;23596;-77
2022/11/22 02:43:59;;;;;;;32.20;25.00;;;;;;;0.22;66.35;99379.43;108777;1274;21989;-77
2022/11/22 02:46:47;;;;;;;31.30;23.40;;;;;;;0.22;66.50;99377.21;108477;1272;22203;-77
2022/11/22 02:49:29;;;;;;;32.70;23.90;;;;;;;0.20;66.44;99378.77;108459;1278;23583;-77
2022/11/22 02:52:06;;;;;;;30.90;24.70;;;;;;;0.18;66.56;99376.73;108342;1276;21929;-78
2022/11/22 02:54:37;;;;;;;28.60;23.70;;;;;;;0.20;66.67;99381.84;108476;1278;23840;-78
2022/11/22 02:57:16;;;;;;;30.20;24.50;;;;;;;0.20;66.79;99374.32;108399;1279;23593;-78
2022/11/22 02:59:45;;;;;;;28.10;23.60;;;;;;;0.20;66.83;99377.40;108080;1284;23669;-78
2022/11/22 03:02:20;;;;;;;30.80;24.50;;;;;;;0.21;66.90;99382.69;108088;1286;21924;-77
2022/11/22 03:05:00;;;;;;;31.80;26.60;;;;;;;0.24;67.11;99385.23;108124;1280;21931;-78
2022/11/22 03:07:37;;;;;;;31.30;25.20;;;;;;;0.27;67.07;99391.01;108434;1280;23609;-78
2022/11/22 03:10:24;;;;;;;;;;;;;;;;;;;;;
2022/11/22 03:13:02;;;;;;;29.80;24.40;;;;;;;0.34;67.27;99389.55;108418;1270;24045;-77
2022/11/22 03:15:49;;;;;;;31.00;24.80;;;;;;;0.37;67.36;99384.05;108417;1277;22106;-77
2022/11/22 03:18:25;;;;;;;33.20;26.00;;;;;;;0.42;67.46;99388.29;108699;1275;21923;-77
2022/11/22 03:21:06;;;;;;;34.20;26.50;;;;;;;0.43;67.28;99394.27;108641;1275;21926;-77
2022/11/22 03:23:36;;;;;;;31.80;26.80;;;;;;;0.44;67.34;99397.32;108874;1274;21924;-76
2022/11/22 03:26:28;;;;;;;;;;;;;;;;;;;;;
2022/11/22 03:29:12;;;;;;;35.20;25.50;;;;;;;0.56;67.60;99395.97;108943;1276;21920;-76
2022/11/22 03:32:00;;;;;;;32.10;26.10;;;;;;;0.54;67.26;99391.38;108722;1275;21918;-77
2022/11/22 03:34:43;;;;;;;34.80;27.00;;;;;;;0.52;67.42;99382.84;108789;1274;23604;-78
2022/11/22 03:37:26;;;;;;;;;;;;;;;;;;;;;
2022/11/22 03:39:58;;;;;;;;;;;;;;;0.56;67.52;99385.02;108852;1275;23574;-79
2022/11/22 03:42:31;;;;;;;40.00;29.30;;;;;;;0.50;67.78;99385.27;108896;1272;23697;-76
2022/11/22 03:45:03;;;;;;;40.50;32.50;;;;;;;0.46;67.72;99385.16;108856;1274;21915;-78
2022/11/22 03:47:32;;;;;;;43.30;34.60;;;;;;;0.45;67.68;99377.29;108654;1271;21951;-76
2022/11/22 03:50:15;;;;;;;54.60;40.70;;;;;;;0.49;67.93;99370.04;108643;1274;21925;-76
2022/11/22 03:52:58;;;;;;;;;;;;;;;;;;;;;
2022/11/22 03:55:45;;;;;;;84.60;67.70;;;;;;;0.51;67.91;99360.42;108770;1273;22689;-76
2022/11/22 03:58:17;;;;;;;54.00;45.10;;;;;;;0.50;67.85;99351.04;108711;1273;23063;-76
2022/11/22 04:00:46;;;;;;;54.30;42.70;;;;;;;0.49;67.93;99352.60;108722;1274;23042;-77
2022/11/22 04:03:20;;;;;;;154.20;112.80;;;;;;;0.48;67.95;99355.69;108706;1273;24670;-78
2022/11/22 04:05:53;;;;;;;102.80;75.20;;;;;;;0.48;68.11;99359.11;108878;1271;24879;-76
2022/11/22 04:08:22;;;;;;;178.00;125.40;;;;;;;0.52;68.20;99358.19;108701;1272;21932;-77
2022/11/22 04:10:51;;;;;;;192.10;134.50;;;;;;;0.56;68.29;99351.30;108812;1274;23576;-78
2022/11/22 04:13:20;;;;;;;217.40;153.80;;;;;;;0.59;68.28;99347.14;108747;1273;23147;-76
2022/11/22 04:15:49;;;;;;;554.30;268.10;;;;;;;0.62;68.23;99341.45;108733;1271;21925;-76
2022/11/22 04:18:22;;;;;;;480.40;202.50;;;;;;;0.61;68.18;99334.79;108541;1279;21976;-78
2022/11/22 04:23:41;;;;;;;629.00;283.80;;;;;;;0.52;68.27;99333.02;108515;1279;23673;-77
2022/11/22 04:26:12;;;;;;;315.30;138.80;;;;;;;0.48;68.46;99338.90;108612;1279;21934;-77
2022/11/22 04:28:40;;;;;;;459.30;257.90;;;;;;;0.44;68.40;99340.15;108490;1279;24961;-77
2022/11/22 04:34:17;;;;;;;177.00;116.30;;;;;;;0.34;68.66;99333.08;108561;1279;22694;-76
2022/11/22 04:36:45;;;;;;;65.30;49.40;;;;;;;0.35;68.94;99330.50;108250;1280;22280;-76
2022/11/22 04:39:15;;;;;;;107.30;80.80;;;;;;;0.36;69.04;99332.20;108395;1281;22926;-77
2022/11/22 04:41:44;;;;;;;77.10;58.70;;;;;;;0.33;69.02;99335.14;108306;1280;21966;-77
2022/11/22 04:47:00;;;;;;;73.20;57.90;;;;;;;0.26;69.22;99337.80;108454;1279;24336;-77
2022/11/22 04:49:29;;;;;;;67.30;47.40;;;;;;;0.28;69.41;99334.52;108305;1281;21942;-77
2022/11/22 04:54:46;;;;;;;59.80;43.10;;;;;;;0.32;69.62;99329.00;108619;1273;21936;-77
2022/11/22 04:57:15;;;;;;;62.80;44.20;;;;;;;0.33;69.68;99327.45;108760;1273;21926;-77
2022/11/22 04:59:44;;;;;;;70.60;48.80;;;;;;;0.36;69.80;99328.27;108746;1274;23857;-77
2022/11/22 05:02:12;;;;;;;67.90;45.80;;;;;;;0.33;69.77;99323.52;108849;1273;21935;-77
2022/11/22 05:04:41;;;;;;;72.20;45.80;;;;;;;0.32;69.86;99326.26;108490;1282;22587;-77
2022/11/22 05:07:23;;;;;;;67.40;45.10;;;;;;;0.30;70.04;99330.58;108300;1282;22101;-76
2022/11/22 05:09:59;;;;;;;72.10;47.70;;;;;;;0.23;70.03;99333.91;108406;1282;21956;-76
2022/11/22 05:12:43;;;;;;;76.50;50.10;;;;;;;0.19;70.21;99326.27;108430;1282;22313;-77
2022/11/22 05:15:38;;;;;;;;;;;;;;;;;;;;;
2022/11/22 05:18:15;;;;;;;66.50;44.40;;;;;;;0.20;70.68;99334.80;108446;1281;21951;-77
2022/11/22 05:20:56;;;;;;;69.40;47.20;;;;;;;0.16;70.79;99334.16;108379;1279;23047;-76
2022/11/22 05:26:20;;;;;;;67.90;48.20;;;;;;;-0.03;71.00;99333.00;108503;1281;24372;-76
2022/11/22 05:28:56;;;;;;;71.90;47.70;;;;;;;-0.07;71.15;99334.23;108539;1280;21961;-76
2022/11/22 05:31:26;;;;;;;72.60;47.30;;;;;;;-0.07;71.20;99332.20;108531;1278;23598;-76
2022/11/22 05:34:06;;;;;;;70.70;45.80;;;;;;;-0.07;71.44;99335.95;108571;1280;22141;-76
2022/11/22 05:36:39;;;;;;;67.80;44.10;;;;;;;-0.08;71.51;99342.98;108607;1281;23677;-76
2022/11/22 05:39:25;;;;;;;64.20;45.00;;;;;;;-0.10;71.60;99354.63;108575;1280;21942;-75
2022/11/22 05:42:04;;;;;;;68.20;46.40;;;;;;;-0.13;72.11;99359.96;108744;1274;21907;-75
2022/11/22 05:45:03;;;;;;;80.00;49.40;;;;;;;-0.20;72.20;99355.24;109010;1273;23016;-76
2022/11/22 05:47:51;;;;;;;64.90;41.20;;;;;;;-0.22;72.42;99353.39;108755;1274;22052;-76
2022/11/22 05:50:31;;;;;;;62.60;41.00;;;;;;;-0.22;72.63;99351.33;108941;1274;21931;-76
2022/11/22 05:53:25;;;;;;;61.80;40.50;;;;;;;-0.20;72.76;99347.37;108937;1274;21926;-76
2022/11/22 05:59:32;;;;;;;74.40;47.90;;;;;;;-0.14;72.92;99349.38;108927;1274;22718;-76
2022/11/22 06:02:11;;;;;;;69.10;43.70;;;;;;;-0.09;73.10;99351.89;108549;1279;23034;-76
2022/11/22 06:04:41;;;;;;;70.60;47.60;;;;;;;-0.06;73.26;99364.34;108501;1278;22025;-76
2022/11/22 06:07:46;;;;;;;80.10;48.80;;;;;;;-0.06;73.26;99364.51;108465;1279;23430;-76
2022/11/22 06:10:24;;;;;;;96.60;56.70;;;;;;;-0.05;73.37;99365.36;108606;1276;22796;-77
2022/11/22 06:12:54;;;;;;;89.80;53.90;;;;;;;-0.02;73.43;99367.21;108532;1276;21925;-76
2022/11/22 06:15:31;;;;;;;71.80;46.00;;;;;;;0.00;73.72;99372.15;108522;1281;21980;-76
2022/11/22 06:18:03;;;;;;;85.90;50.50;;;;;;;-0.00;73.89;99368.73;108427;1281;22024;-76
2022/11/22 06:20:48;;;;;;;86.30;53.60;;;;;;;0.03;73.79;99363.38;108723;1272;23630;-77
2022/11/22 06:23:19;;;;;;;80.40;48.60;;;;;;;0.10;73.92;99360.73;108957;1276;23133;-76
2022/11/22 06:26:09;;;;;;;84.60;54.70;;;;;;;0.16;73.97;99360.00;108289;1273;24956;-77
2022/11/22 06:28:39;;;;;;;86.40;51.60;;;;;;;0.19;74.09;99363.73;108590;1285;21957;-76
2022/11/22 06:31:21;;;;;;;82.90;50.20;;;;;;;0.24;74.12;99361.79;108559;1275;22188;-77
2022/11/22 06:34:11;;;;;;;89.20;53.10;;;;;;;0.28;74.26;99363.95;108364;1275;22273;-76
2022/11/22 06:36:41;;;;;;;88.70;51.90;;;;;;;0.33;74.28;99366.13;108227;1277;21943;-76
2022/11/22 06:39:19;;;;;;;102.30;64.30;;;;;;;0.40;74.34;99366.05;109129;1275;21898;-76
2022/11/22 06:41:54;;;;;;;85.50;52.10;;;;;;;0.46;74.35;99355.54;108561;1278;23083;-77
2022/11/22 06:44:23;;;;;;;79.40;54.80;;;;;;;0.51;74.41;99349.64;109076;1272;21933;-75
2022/11/22 06:46:52;;;;;;;86.40;52.10;;;;;;;0.55;74.40;99344.98;108864;1272;21931;-76
2022/11/22 06:49:24;;;;;;;81.70;51.30;;;;;;;0.57;74.34;99344.61;108840;1272;21940;-76
2022/11/22 06:51:59;;;;;;;86.40;51.60;;;;;;;0.59;74.47;99346.80;109184;1263;21807;-75
2022/11/22 06:54:34;;;;;;;89.90;52.30;;;;;;;0.61;74.56;99349.52;109086;1272;21932;-75
2022/11/22 06:57:08;;;;;;;87.30;51.00;;;;;;;0.62;74.52;99351.05;108940;1273;21933;-76
2022/11/22 06:59:37;;;;;;;124.30;78.80;;;;;;;0.67;74.55;99355.61;108857;1273;23690;-75
2022/11/22 07:02:11;;;;;;;89.30;55.20;;;;;;;0.69;74.65;99355.23;109036;1270;23691;-75
2022/11/22 07:04:40;;;;;;;82.50;53.20;;;;;;;0.68;74.54;99359.02;109553;1272;21926;-75
2022/11/22 07:07:29;;;;;;;91.10;51.20;;;;;;;0.68;74.74;99370.49;109417;1272;22174;-75
2022/11/22 07:09:58;;;;;;;81.00;50.10;;;;;;;0.70;74.83;99376.11;108858;1269;23576;-75
2022/11/22 07:12:30;;;;;;;90.10;53.50;;;;;;;0.72;74.94;99378.82;108628;1265;23017;-76
2022/11/22 07:15:06;;;;;;;80.80;48.20;;;;;;;0.71;75.03;99388.25;108579;1282;21938;-76
2022/11/22 07:17:35;;;;;;;79.10;48.70;;;;;;;0.69;74.90;99388.63;108141;1272;21989;-77
2022/11/22 07:20:06;;;;;;;76.80;46.20;;;;;;;0.74;75.13;99389.24;108355;1280;23160;-81
2022/11/22 07:22:35;;;;;;;71.40;47.10;;;;;;;0.77;75.36;99395.87;108639;1277;22977;-77
2022/11/22 07:25:08;;;;;;;63.30;44.50;;;;;;;0.75;75.27;99395.58;107985;1284;21959;-77
2022/11/22 07:27:38;;;;;;;69.30;46.80;;;;;;;0.76;75.23;99397.11;107991;1282;23056;-76
2022/11/22 07:30:21;;;;;;;;;;;;;;;;;;;;;
2022/11/22 07:33:01;;;;;;;69.40;46.20;;;;;;;0.77;75.35;99391.60;108464;1278;21929;-75
2022/11/22 07:35:34;;;;;;;70.10;46.00;;;;;;;0.80;75.39;99388.66;108521;1278;23579;-76
2022/11/22 07:38:07;;;;;;;77.50;45.70;;;;;;;0.86;75.50;99387.21;108073;1284;23924;-77
2022/11/22 07:40:40;;;;;;;63.90;39.70;;;;;;;0.92;75.62;99390.38;108125;1282;21939;-76
2022/11/22 07:43:17;;;;;;;61.70;41.00;;;;;;;0.94;75.55;99390.35;107721;1283;21949;-77
2022/11/22 07:45:49;;;;;;;57.20;40.10;;;;;;;0.93;75.49;99385.39;107964;1281;23746;-77
2022/11/22 07:48:23;;;;;;;65.40;42.90;;;;;;;0.94;75.62;99387.95;108054;1279;21951;-77
2022/11/22 07:50:55;;;;;;;64.90;41.80;;;;;;;0.98;75.66;99387.23;108286;1283;22094;-83
2022/11/22 07:53:28;;;;;;;50.90;36.10;;;;;;;0.98;75.63;99389.27;108075;1285;21950;-76
2022/11/22 07:56:05;;;;;;;53.90;36.40;;;;;;;0.98;75.63;99390.63;108192;1281;21959;-77
2022/11/22 07:58:39;;;;;;;52.30;36.80;;;;;;;0.99;75.64;99391.64;108473;1278;21962;-82
2022/11/22 08:01:14;;;;;;;51.40;37.40;;;;;;;1.01;75.70;99393.33;108772;1272;21931;-79
2022/11/22 08:03:48;;;;;;;49.20;35.90;;;;;;;1.01;75.68;99391.27;108822;1272;22786;-79
2022/11/22 08:06:18;;;;;;;45.70;34.70;;;;;;;1.03;75.77;99386.63;108861;1274;21935;-77
2022/11/22 08:08:51;;;;;;;51.20;34.70;;;;;;;1.08;75.91;99385.52;108876;1272;24275;-77
2022/11/22 08:11:38;;;;;;;50.70;35.50;;;;;;;1.11;75.87;99385.48;108752;1274;21931;-77
2022/11/22 08:14:11;;;;;;;48.30;35.10;;;;;;;1.14;76.09;99381.66;108927;1272;23460;-76
2022/11/22 08:16:40;;;;;;;50.90;34.20;;;;;;;1.15;76.00;99381.30;108959;1272;21924;-76
2022/11/22 08:19:16;;;;;;;53.20;36.50;;;;;;;1.18;75.90;99386.23;108424;1279;22100;-76
2022/11/22 08:21:50;;;;;;;59.50;42.60;;;;;;;1.22;76.01;99385.48;108508;1274;23072;-75
2022/11/22 08:24:28;;;;;;;46.80;33.10;;;;;;;1.25;75.96;99381.16;108478;1277;22702;-76
2022/11/22 08:26:58;;;;;;;54.30;37.70;;;;;;;1.26;75.96;99381.14;108290;1281;21971;-76
2022/11/22 08:29:27;;;;;;;62.70;43.20;;;;;;;1.27;75.99;99372.21;108441;1280;21978;-77
2022/11/22 08:31:57;;;;;;;57.30;41.40;;;;;;;1.29;76.09;99367.73;107902;1283;23452;-76
2022/11/22 08:34:26;;;;;;;55.30;36.30;;;;;;;1.36;76.19;99372.59;107965;1283;23598;-76
2022/11/22 08:36:55;;;;;;;44.40;31.60;;;;;;;1.40;76.18;99381.10;108121;1278;23864;-76
2022/11/22 08:39:30;;;;;;;50.30;33.00;;;;;;;1.37;76.01;99386.27;108520;1277;21937;-76
2022/11/22 08:42:06;;;;;;;52.10;34.10;;;;;;;1.36;76.02;99387.52;108487;1277;23798;-78
2022/11/22 08:44:44;;;;;;;53.30;38.40;;;;;;;1.40;76.15;99390.20;108365;1279;22705;-79
2022/11/22 08:47:15;;;;;;;55.70;39.90;;;;;;;1.44;76.28;99400.07;108383;1278;21935;-76
2022/11/22 08:49:44;;;;;;;48.90;38.30;;;;;;;1.46;76.28;99404.31;108593;1272;22567;-76
2022/11/22 08:52:14;;;;;;;57.60;36.80;;;;;;;1.43;76.17;99412.59;108762;1273;21939;-76
2022/11/22 08:54:55;;;;;;;52.30;35.30;;;;;;;1.38;76.14;99418.67;108905;1272;22637;-76
2022/11/22 08:57:26;;;;;;;52.30;35.40;;;;;;;1.38;76.28;99420.39;108463;1278;23007;-75
2022/11/22 08:59:55;;;;;;;54.00;35.70;;;;;;;1.41;76.32;99421.03;108214;1278;23012;-76
2022/11/22 09:02:24;;;;;;;52.00;36.60;;;;;;;1.45;76.30;99420.98;108205;1278;23050;-76
2022/11/22 09:05:14;;;;;;;52.50;34.70;;;;;;;1.48;76.38;99423.15;108363;1277;22081;-76
2022/11/22 09:07:43;;;;;;;56.70;37.70;;;;;;;1.45;76.38;99416.33;108434;1278;23681;-75
2022/11/22 09:10:32;;;;;;;49.30;35.50;;;;;;;1.43;76.36;99406.77;108380;1277;24095;-76
2022/11/22 09:13:03;;;;;;;59.70;40.20;;;;;;;1.48;76.44;99406.35;108472;1278;23030;-76
2022/11/22 09:15:39;;;;;;;53.00;36.10;;;;;;;1.52;76.49;99403.35;108207;1275;22485;-77
2022/11/22 09:18:13;;;;;;;55.70;37.90;;;;;;;1.58;76.61;99402.08;108357;1278;23584;-76
2022/11/22 09:20:45;;;;;;;57.60;38.90;;;;;;;1.63;76.55;99399.59;108014;1284;21948;-76
2022/11/22 09:23:17;;;;;;;53.90;37.20;;;;;;;1.66;76.58;99393.37;108426;1278;23035;-76
2022/11/22 09:26:02;;;;;;;60.90;43.30;;;;;;;1.70;76.66;99390.38;108312;1278;21943;-75
2022/11/22 09:28:34;;;;;;;63.70;43.90;;;;;;;1.73;76.53;99394.44;108406;1277;21941;-77
2022/11/22 09:31:10;;;;;;;59.40;42.40;;;;;;;1.74;76.40;99388.92;108342;1279;21957;-76
2022/11/22 09:33:50;;;;;;;66.30;42.80;;;;;;;1.73;76.40;99381.57;108538;1277;21935;-82
2022/11/22 09:36:40;;;;;;;66.40;46.30;;;;;;;1.72;76.40;99376.80;108486;1278;22786;-76
2022/11/22 09:39:09;;;;;;;63.50;43.60;;;;;;;1.73;76.39;99383.13;108503;1272;21922;-75
2022/11/22 09:42:16;;;;;;;69.50;47.00;;;;;;;1.74;76.35;99376.94;108643;1272;21932;-76
2022/11/22 09:45:11;;;;;;;76.80;48.60;;;;;;;1.77;76.44;99376.54;108771;1272;21932;-75
2022/11/22 09:48:44;;;;;;;64.70;44.90;;;;;;;1.74;76.45;99381.92;108883;1272;21936;-77
2022/11/22 09:51:21;;;;;;;69.10;48.50;;;;;;;1.69;76.50;99376.34;108513;1279;21944;-75
2022/11/22 09:54:21;;;;;;;66.40;47.80;;;;;;;1.72;76.54;99374.58;108393;1279;23039;-76
2022/11/22 09:57:03;;;;;;;59.20;44.40;;;;;;;1.73;76.43;99379.85;108476;1279;21947;-77
2022/11/22 09:59:39;;;;;;;64.10;45.10;;;;;;;1.72;76.40;99375.06;107995;1286;22035;-77
2022/11/22 10:02:29;;;;;;;61.80;47.60;;;;;;;1.72;76.41;99368.05;107748;1285;23069;-75
2022/11/22 10:05:27;;;;;;;67.80;48.30;;;;;;;1.75;76.59;99369.88;107777;1285;23670;-75
2022/11/22 10:09:19;;;;;;;66.10;47.60;;;;;;;1.79;76.57;99367.92;107854;1285;23592;-76
2022/11/22 10:12:02;;;;;;;62.40;44.80;;;;;;;1.76;76.40;99369.34;106791;1297;23619;-77
2022/11/22 10:15:13;;;;;;;64.60;48.40;;;;;;;1.75;76.42;99367.65;106780;1298;23804;-77
2022/11/22 10:17:57;;;;;;;73.70;54.60;;;;;;;1.77;76.53;99362.80;106483;1298;22067;-75
2022/11/22 10:20:33;;;;;;;75.30;56.60;;;;;;;1.87;76.75;99370.86;106818;1292;23167;-76
2022/11/22 10:23:14;;;;;;;66.10;50.80;;;;;;;1.99;76.64;99375.98;106674;1298;21986;-75
2022/11/22 10:26:11;;;;;;;65.90;46.90;;;;;;;2.03;76.49;99376.75;106460;1299;22914;-76
2022/11/22 10:29:21;;;;;;;61.60;46.30;;;;;;;2.04;76.18;99369.19;106858;1298;23251;-77
2022/11/22 10:32:24;;;;;;;69.00;51.90;;;;;;;2.03;76.18;99367.14;107249;1293;22757;-76
2022/11/22 10:35:12;;;;;;;57.60;47.40;;;;;;;2.03;76.07;99371.77;106763;1298;22004;-78
2022/11/22 10:38:12;;;;;;;58.60;47.70;;;;;;;2.00;76.02;99366.16;106892;1297;21976;-77
2022/11/22 10:41:32;;;;;;;66.90;50.90;;;;;;;2.04;76.24;99364.04;106733;1300;22007;-77
2022/11/22 10:45:00;;;;;;;48.70;38.10;;;;;;;2.12;76.18;99356.50;106313;1302;21973;-78
2022/11/22 10:48:17;;;;;;;58.70;48.40;;;;;;;2.15;75.94;99353.52;106493;1303;21984;-77
2022/11/22 10:51:15;;;;;;;65.20;48.80;;;;;;;2.15;75.95;99343.92;106940;1297;21972;-78
2022/11/22 10:54:31;;;;;;;62.70;48.60;;;;;;;2.20;76.06;99340.73;106783;1291;21948;-77
2022/11/22 10:57:42;;;;;;;63.80;50.10;;;;;;;2.21;75.87;99335.21;107658;1289;21967;-77
2022/11/22 11:00:35;;;;;;;80.30;57.90;;;;;;;2.21;75.92;99330.93;107644;1277;1171710;-77
2022/11/22 11:03:33;;;;;;;75.70;56.30;;;;;;;2.25;75.94;99332.89;108664;1272;21976;-77
2022/11/22 11:06:21;;;;;;;67.80;53.90;;;;;;;2.31;75.99;99326.60;108475;1279;21943;-78
2022/11/22 11:09:29;;;;;;;72.90;55.60;;;;;;;2.38;75.92;99332.11;108396;1279;22270;-79
2022/11/22 11:12:34;;;;;;;70.70;55.70;;;;;;;2.43;75.82;99327.73;108344;1279;23084;-78
2022/11/22 11:15:34;;;;;;;69.90;56.90;;;;;;;2.45;75.71;99325.11;108555;1278;23501;-78
2022/11/22 11:18:45;;;;;;;75.20;55.30;;;;;;;2.52;75.84;99320.84;108471;1277;21936;-78
2022/11/22 11:21:21;;;;;;;65.70;55.30;;;;;;;2.63;75.83;99324.91;108499;1277;21937;-78
2022/11/22 11:24:13;;;;;;;66.40;54.70;;;;;;;2.71;75.67;99327.31;108369;1272;22747;-80
2022/11/22 11:26:59;;;;;;;71.10;55.00;;;;;;;2.81;75.61;99325.89;108682;1272;21918;-77
2022/11/22 11:29:35;;;;;;;70.40;54.90;;;;;;;2.86;75.23;99323.36;109054;1271;23678;-78
2022/11/22 11:32:28;;;;;;;68.40;58.30;;;;;;;2.84;75.08;99318.42;109165;1272;21942;-79
2022/11/22 11:35:17;;;;;;;66.90;55.70;;;;;;;2.89;75.15;99314.70;109172;1271;21923;-79
2022/11/22 11:38:45;;;;;;;64.60;55.50;;;;;;;2.94;75.09;99312.35;108488;1279;23061;-78
2022/11/22 11:41:32;;;;;;;66.10;54.60;;;;;;;2.98;75.14;99310.87;108730;1278;21946;-82
2022/11/22 11:44:38;;;;;;;63.50;53.00;;;;;;;3.05;75.10;99315.88;108323;1279;23580;-81
2022/11/22 11:47:17;;;;;;;61.00;51.80;;;;;;;3.07;74.70;99313.41;108317;1280;21957;-79
2022/11/22 11:50:01;;;;;;;;;;;;;;;;;;;;;
2022/11/22 11:52:41;;;;;;;67.10;56.10;;;;;;;3.15;74.72;99308.42;108885;1277;21931;-80
2022/11/22 11:55:30;;;;;;;67.70;56.10;;;;;;;3.20;74.68;99307.09;107916;1281;22719;-80
2022/11/22 11:58:34;;;;;;;;;;;;;;;;;;;;;
2022/11/22 12:01:10;;;;;;;65.90;55.00;;;;;;;3.34;74.57;99302.44;108563;1281;22155;-80
2022/11/22 12:03:54;;;;;;;70.40;57.60;;;;;;;3.40;74.45;99295.42;108316;1281;21956;-79
2022/11/22 12:06:30;;;;;;;68.20;56.90;;;;;;;3.44;74.34;99289.12;108406;1266;21983;-79
2022/11/22 12:09:29;;;;;;;64.10;53.60;;;;;;;3.49;74.10;99286.94;108494;1280;23244;-79
2022/11/22 12:12:39;;;;;;;67.30;56.20;;;;;;;3.49;73.98;99283.84;108715;1278;23591;-79
2022/11/22 12:15:22;;;;;;;71.80;60.00;;;;;;;3.51;73.95;99282.60;109129;1272;21925;-82
2022/11/22 12:18:42;;;;;;;67.40;58.40;;;;;;;3.55;73.96;99284.03;108983;1272;21991;-80
2022/11/22 12:21:48;;;;;;;78.00;59.20;;;;;;;3.61;74.04;99283.34;109039;1274;21975;-80
2022/11/22 12:24:44;;;;;;;76.30;60.00;;;;;;;3.66;73.82;99276.33;108833;1270;23592;-80
2022/11/22 12:27:39;;;;;;;64.50;54.50;;;;;;;3.72;73.89;99274.80;108643;1277;25024;-80
2022/11/22 12:30:21;;;;;;;65.70;53.40;;;;;;;3.82;73.95;99270.73;108852;1277;21929;-80
2022/11/22 12:33:04;;;;;;;60.40;51.90;;;;;;;3.94;73.89;99270.41;108596;1277;22019;-80
2022/11/22 12:35:47;;;;;;;61.00;50.70;;;;;;;4.03;73.56;99278.09;108685;1275;21918;-79
2022/11/22 12:38:26;;;;;;;62.40;52.70;;;;;;;4.09;73.43;99276.02;108229;1283;21967;-79
2022/11/22 12:41:01;;;;;;;63.40;52.70;;;;;;;4.16;73.23;99279.60;109037;1268;21972;-80
2022/11/22 12:43:53;;;;;;;64.60;53.30;;;;;;;4.18;72.87;99280.75;108776;1278;23048;-79
2022/11/22 12:46:48;;;;;;;64.90;55.50;;;;;;;4.15;72.60;99273.94;108622;1278;23291;-79
2022/11/22 12:49:49;;;;;;;59.00;50.80;;;;;;;4.15;72.52;99274.30;108711;1270;21952;-80